<?xml version="1.0" encoding="UTF-8" standalone="no" ?>
<gpx xmlns="http://www.topografix.com/GPX/1/1" xmlns:xsi="http://www.w3.org/2001/XMLSchema-instance" xsi:schemaLocation="http://www.topografix.com/GPX/1/1 http://www.topografix.com/GPX/1/1/gpx.xsd" version="1.1" creator="VisuGPX - https://www.visugpx.com">
  <metadata>
    <name>D4 all 2022 v1</name>
  </metadata>
  <wpt lat="49.10679" lon="7.14946">
    <ele>306.2</ele>
    <name><![CDATA[Ravitaillement 1]]></name>
    <desc><![CDATA[Ravitaillement tous parcours]]></desc>
  </wpt>
  <wpt lat="49.08318" lon="7.15516">
    <ele>279.7</ele>
    <name><![CDATA[Ravitaillement 2]]></name>
    <desc><![CDATA[Pour les grands parcours]]></desc>
  </wpt>
  <wpt lat="49.11742" lon="7.09907">
    <ele>229</ele>
    <name><![CDATA[Danger]]></name>
    <desc><![CDATA[Il faut un signaleur avec gilet jaune ici.]]></desc>
  </wpt>
  <wpt lat="49.12234" lon="7.09695">
    <ele>236.4</ele>
    <name><![CDATA[Danger]]></name>
    <desc><![CDATA[Signaleur 2 avec gilet jaune]]></desc>
  </wpt>
  <trk>
    <name><![CDATA[D4 VTT 15km 2022 v1]]></name>
    <extensions>
      <line xmlns="http://www.topografix.com/GPX/gpx_style/0/2">
        <color>008000</color>
        <width>5</width>
          <extensions>
            <sens>1</sens>
          </extensions>
      </line>
    </extensions>
    <trkseg>
      <trkpt lat="49.11337" lon="7.09471">
        <ele>224.19322636848</ele>
        <time>2022-01-19T19:06:59.000Z</time>
        <extensions>
          <visugpx:TrkExtension xmlns:visugpx="https://www.visugpx.com/editgpx/">
            <visugpx:node>10</visugpx:node>
            </visugpx:TrkExtension>
        </extensions>
      </trkpt>
      <trkpt lat="49.11345" lon="7.09472">
        <ele>224.41175849648</ele>
        <time>2022-01-19T19:06:59.002Z</time>
      </trkpt>
      <trkpt lat="49.11359" lon="7.09473">
        <ele>224.67969142698</ele>
        <time>2022-01-19T19:06:59.006Z</time>
      </trkpt>
      <trkpt lat="49.11363" lon="7.09474">
        <ele>224.95338955519</ele>
        <time>2022-01-19T19:06:59.011Z</time>
      </trkpt>
      <trkpt lat="49.11362" lon="7.09491">
        <ele>225.30481485897</ele>
        <time>2022-01-19T19:06:59.018Z</time>
      </trkpt>
      <trkpt lat="49.11358" lon="7.09549">
        <ele>225.95404493554</ele>
        <time>2022-01-19T19:06:59.040Z</time>
      </trkpt>
      <trkpt lat="49.11353" lon="7.09628">
        <ele>226.3565883401</ele>
        <time>2022-01-19T19:06:59.065Z</time>
      </trkpt>
      <trkpt lat="49.11353" lon="7.09639">
        <ele>226.74424294903</ele>
        <time>2022-01-19T19:06:59.092Z</time>
      </trkpt>
      <trkpt lat="49.11354" lon="7.09641">
        <ele>227.12697423924</ele>
        <time>2022-01-19T19:06:59.119Z</time>
      </trkpt>
      <trkpt lat="49.11364" lon="7.09698">
        <ele>227.8483697911</ele>
        <time>2022-01-19T19:06:59.154Z</time>
      </trkpt>
      <trkpt lat="49.11367" lon="7.09718">
        <ele>228.90718190571</ele>
        <time>2022-01-19T19:06:59.227Z</time>
      </trkpt>
      <trkpt lat="49.11372" lon="7.09731">
        <ele>229.41244320882</ele>
        <time>2022-01-19T19:06:59.267Z</time>
      </trkpt>
      <trkpt lat="49.11389" lon="7.09762">
        <ele>229.8520450583</ele>
        <time>2022-01-19T19:06:59.312Z</time>
      </trkpt>
      <trkpt lat="49.11404" lon="7.09779">
        <ele>230.15236564806</ele>
        <time>2022-01-19T19:06:59.361Z</time>
      </trkpt>
      <trkpt lat="49.11417" lon="7.09789">
        <ele>230.37674180429</ele>
        <time>2022-01-19T19:06:59.413Z</time>
      </trkpt>
      <trkpt lat="49.11426" lon="7.0981">
        <ele>230.53965708277</ele>
        <time>2022-01-19T19:06:59.468Z</time>
      </trkpt>
      <trkpt lat="49.11428" lon="7.09819">
        <ele>230.66019890633</ele>
        <time>2022-01-19T19:06:59.524Z</time>
      </trkpt>
      <trkpt lat="49.11428" lon="7.09831">
        <ele>230.75508778761</ele>
        <time>2022-01-19T19:06:59.582Z</time>
      </trkpt>
      <trkpt lat="49.11426" lon="7.09839">
        <ele>230.83865924081</ele>
        <time>2022-01-19T19:06:59.641Z</time>
      </trkpt>
      <trkpt lat="49.11423" lon="7.09847">
        <ele>230.90567506812</ele>
        <time>2022-01-19T19:06:59.701Z</time>
      </trkpt>
      <trkpt lat="49.11414" lon="7.09855">
        <ele>230.97049781294</ele>
        <time>2022-01-19T19:06:59.763Z</time>
      </trkpt>
      <trkpt lat="49.11409" lon="7.09857">
        <ele>231.01102130156</ele>
        <time>2022-01-19T19:06:59.826Z</time>
      </trkpt>
      <trkpt lat="49.11397" lon="7.09856">
        <ele>231.04439664637</ele>
        <time>2022-01-19T19:06:59.892Z</time>
      </trkpt>
      <trkpt lat="49.11384" lon="7.09845">
        <ele>231.05108229717</ele>
        <time>2022-01-19T19:06:59.961Z</time>
      </trkpt>
      <trkpt lat="49.11376" lon="7.09842">
        <ele>231.06945343238</ele>
        <time>2022-01-19T19:07:00.031Z</time>
      </trkpt>
      <trkpt lat="49.11368" lon="7.09843">
        <ele>231.07840213896</ele>
        <time>2022-01-19T19:07:00.103Z</time>
      </trkpt>
      <trkpt lat="49.11358" lon="7.0985">
        <ele>231.09109021794</ele>
        <time>2022-01-19T19:07:00.177Z</time>
      </trkpt>
      <trkpt lat="49.11349" lon="7.09863">
        <ele>231.1204337612</ele>
        <time>2022-01-19T19:07:00.254Z</time>
      </trkpt>
      <trkpt lat="49.11343" lon="7.09882">
        <ele>231.16262357314</ele>
        <time>2022-01-19T19:07:00.333Z</time>
      </trkpt>
      <trkpt lat="49.11343" lon="7.09893">
        <ele>231.22093815257</ele>
        <time>2022-01-19T19:07:00.414Z</time>
      </trkpt>
      <trkpt lat="49.1133" lon="7.09915">
        <ele>231.36891901864</ele>
        <time>2022-01-19T19:07:00.499Z</time>
      </trkpt>
      <trkpt lat="49.1132" lon="7.09922">
        <ele>231.50549757843</ele>
        <time>2022-01-19T19:07:00.586Z</time>
      </trkpt>
      <trkpt lat="49.11314" lon="7.09929">
        <ele>231.65672777114</ele>
        <time>2022-01-19T19:07:00.675Z</time>
      </trkpt>
      <trkpt lat="49.11286" lon="7.09944">
        <ele>231.83209421119</ele>
        <time>2022-01-19T19:07:00.769Z</time>
      </trkpt>
      <trkpt lat="49.11252" lon="7.09963">
        <ele>232.03790746544</ele>
        <time>2022-01-19T19:07:00.965Z</time>
      </trkpt>
      <trkpt lat="49.11249" lon="7.09952">
        <ele>232.19151715414</ele>
        <time>2022-01-19T19:07:01.068Z</time>
      </trkpt>
      <trkpt lat="49.11126" lon="7.10037">
        <ele>232.46905609664</ele>
        <time>2022-01-19T19:07:01.198Z</time>
      </trkpt>
      <trkpt lat="49.10984" lon="7.10138">
        <ele>232.69461698476</ele>
        <time>2022-01-19T19:07:01.360Z</time>
      </trkpt>
      <trkpt lat="49.10961" lon="7.1016">
        <ele>232.88909067558</ele>
        <time>2022-01-19T19:07:01.527Z</time>
      </trkpt>
      <trkpt lat="49.1095" lon="7.10175">
        <ele>233.14784177931</ele>
        <time>2022-01-19T19:07:01.697Z</time>
      </trkpt>
      <trkpt lat="49.10873" lon="7.10327">
        <ele>233.46788804295</ele>
        <time>2022-01-19T19:07:01.892Z</time>
      </trkpt>
      <trkpt lat="49.10824" lon="7.10411">
        <ele>233.90478661658</ele>
        <time>2022-01-19T19:07:02.102Z</time>
      </trkpt>
      <trkpt lat="49.108" lon="7.1044">
        <ele>234.29368341032</ele>
        <time>2022-01-19T19:07:02.318Z</time>
      </trkpt>
      <trkpt lat="49.10798" lon="7.10444">
        <ele>234.64464947711</ele>
        <time>2022-01-19T19:07:02.535Z</time>
      </trkpt>
      <trkpt lat="49.10796" lon="7.10455">
        <ele>235.01154550829</ele>
        <time>2022-01-19T19:07:02.753Z</time>
      </trkpt>
      <trkpt lat="49.10791" lon="7.10459">
        <ele>235.36063600793</ele>
        <time>2022-01-19T19:07:02.972Z</time>
      </trkpt>
      <trkpt lat="49.10774" lon="7.10475">
        <ele>235.74432685587</ele>
        <time>2022-01-19T19:07:03.196Z</time>
      </trkpt>
      <trkpt lat="49.10764" lon="7.10473">
        <ele>236.06142488005</ele>
        <time>2022-01-19T19:07:03.421Z</time>
      </trkpt>
      <trkpt lat="49.1076" lon="7.10474">
        <ele>236.36536410558</ele>
        <time>2022-01-19T19:07:03.647Z</time>
      </trkpt>
      <trkpt lat="49.10721" lon="7.10498">
        <ele>236.68944229958</ele>
        <time>2022-01-19T19:07:03.882Z</time>
      </trkpt>
      <trkpt lat="49.10686" lon="7.10516">
        <ele>236.9916594905</ele>
        <time>2022-01-19T19:07:04.124Z</time>
      </trkpt>
      <trkpt lat="49.10644" lon="7.10531">
        <ele>237.300114645</ele>
        <time>2022-01-19T19:07:04.375Z</time>
      </trkpt>
      <trkpt lat="49.10564" lon="7.1055">
        <ele>237.73355796713</ele>
        <time>2022-01-19T19:07:04.893Z</time>
      </trkpt>
      <trkpt lat="49.10541" lon="7.10553">
        <ele>237.87895809121</ele>
        <time>2022-01-19T19:07:05.165Z</time>
      </trkpt>
      <trkpt lat="49.105" lon="7.10547">
        <ele>238.03835307426</ele>
        <time>2022-01-19T19:07:05.445Z</time>
      </trkpt>
      <trkpt lat="49.10486" lon="7.10544">
        <ele>238.20271554809</ele>
        <time>2022-01-19T19:07:05.728Z</time>
      </trkpt>
      <trkpt lat="49.10483" lon="7.10539">
        <ele>238.34941494361</ele>
        <time>2022-01-19T19:07:06.012Z</time>
      </trkpt>
      <trkpt lat="49.10456" lon="7.10531">
        <ele>238.51220919812</ele>
        <time>2022-01-19T19:07:06.301Z</time>
      </trkpt>
      <trkpt lat="49.10439" lon="7.10504">
        <ele>238.65873015271</ele>
        <time>2022-01-19T19:07:06.595Z</time>
        <extensions>
          <visugpx:TrkExtension xmlns:visugpx="https://www.visugpx.com/editgpx/">
            <visugpx:node>2</visugpx:node>
            </visugpx:TrkExtension>
        </extensions>
      </trkpt>
      <trkpt lat="49.10437" lon="7.10501">
        <ele>237</ele>
      </trkpt>
      <trkpt lat="49.10435" lon="7.10495">
        <ele>236.8</ele>
      </trkpt>
      <trkpt lat="49.10432" lon="7.10495">
        <ele>236.8</ele>
      </trkpt>
      <trkpt lat="49.10428" lon="7.10495">
        <ele>236.8</ele>
      </trkpt>
      <trkpt lat="49.10423" lon="7.10497">
        <ele>236.9</ele>
      </trkpt>
      <trkpt lat="49.10417" lon="7.10503">
        <ele>237.1</ele>
      </trkpt>
      <trkpt lat="49.10413" lon="7.10509">
        <ele>237.2</ele>
        <extensions>
          <visugpx:TrkExtension xmlns:visugpx="https://www.visugpx.com/editgpx/">
            <visugpx:node>3</visugpx:node>
            </visugpx:TrkExtension>
        </extensions>
      </trkpt>
      <trkpt lat="49.10409" lon="7.10514">
        <ele>237.2</ele>
      </trkpt>
      <trkpt lat="49.10403" lon="7.10518">
        <ele>237.2</ele>
      </trkpt>
      <trkpt lat="49.10357" lon="7.10504">
        <ele>236.1</ele>
        <extensions>
          <visugpx:TrkExtension xmlns:visugpx="https://www.visugpx.com/editgpx/">
            <visugpx:node>4</visugpx:node>
            </visugpx:TrkExtension>
        </extensions>
      </trkpt>
      <trkpt lat="49.10341" lon="7.10499">
        <ele>236</ele>
      </trkpt>
      <trkpt lat="49.103" lon="7.10486">
        <ele>235.3</ele>
      </trkpt>
      <trkpt lat="49.1027" lon="7.10483">
        <ele>234.3</ele>
      </trkpt>
      <trkpt lat="49.10237" lon="7.10484">
        <ele>233.1</ele>
      </trkpt>
      <trkpt lat="49.10209" lon="7.10491">
        <ele>232.2</ele>
      </trkpt>
      <trkpt lat="49.10181" lon="7.10508">
        <ele>231</ele>
      </trkpt>
      <trkpt lat="49.10158" lon="7.10524">
        <ele>230.9</ele>
      </trkpt>
      <trkpt lat="49.10146" lon="7.10533">
        <ele>231</ele>
      </trkpt>
      <trkpt lat="49.10121" lon="7.10555">
        <ele>231.6</ele>
      </trkpt>
      <trkpt lat="49.10115" lon="7.10561">
        <ele>232.1</ele>
        <extensions>
          <visugpx:TrkExtension xmlns:visugpx="https://www.visugpx.com/editgpx/">
            <visugpx:node>5</visugpx:node>
            </visugpx:TrkExtension>
        </extensions>
      </trkpt>
      <trkpt lat="49.10085" lon="7.10591">
        <ele>234.2</ele>
      </trkpt>
      <trkpt lat="49.10041" lon="7.10633">
        <ele>236.2</ele>
      </trkpt>
      <trkpt lat="49.10016" lon="7.10652">
        <ele>236.5</ele>
      </trkpt>
      <trkpt lat="49.09985" lon="7.10677">
        <ele>236.7</ele>
      </trkpt>
      <trkpt lat="49.0994" lon="7.10706">
        <ele>236.9</ele>
        <extensions>
          <visugpx:TrkExtension xmlns:visugpx="https://www.visugpx.com/editgpx/">
            <visugpx:node>6</visugpx:node>
            </visugpx:TrkExtension>
        </extensions>
      </trkpt>
      <trkpt lat="49.09937" lon="7.10708">
        <ele>237</ele>
      </trkpt>
      <trkpt lat="49.09927" lon="7.10715">
        <ele>237.2</ele>
      </trkpt>
      <trkpt lat="49.09924" lon="7.10719">
        <ele>237.2</ele>
      </trkpt>
      <trkpt lat="49.09921" lon="7.1073">
        <ele>237.6</ele>
      </trkpt>
      <trkpt lat="49.09906" lon="7.1074">
        <ele>238.3</ele>
      </trkpt>
      <trkpt lat="49.0986" lon="7.10768">
        <ele>239.6</ele>
      </trkpt>
      <trkpt lat="49.09855" lon="7.10772">
        <ele>239.7</ele>
      </trkpt>
      <trkpt lat="49.09835" lon="7.10788">
        <ele>239.4</ele>
      </trkpt>
      <trkpt lat="49.09833" lon="7.1079">
        <ele>239.4</ele>
      </trkpt>
      <trkpt lat="49.09804" lon="7.10815">
        <ele>239.4</ele>
      </trkpt>
      <trkpt lat="49.0976" lon="7.10855">
        <ele>240.1</ele>
      </trkpt>
      <trkpt lat="49.09729" lon="7.1088">
        <ele>240.9</ele>
      </trkpt>
      <trkpt lat="49.09728" lon="7.10882">
        <ele>240.9</ele>
        <extensions>
          <visugpx:TrkExtension xmlns:visugpx="https://www.visugpx.com/editgpx/">
            <visugpx:node>7</visugpx:node>
            </visugpx:TrkExtension>
        </extensions>
      </trkpt>
      <trkpt lat="49.09686" lon="7.10912">
        <ele>240.6</ele>
      </trkpt>
      <trkpt lat="49.09643" lon="7.10945">
        <ele>241.2</ele>
      </trkpt>
      <trkpt lat="49.09634" lon="7.10952">
        <ele>241.1</ele>
      </trkpt>
      <trkpt lat="49.09622" lon="7.10958">
        <ele>240.9</ele>
      </trkpt>
      <trkpt lat="49.09611" lon="7.10958">
        <ele>240.5</ele>
      </trkpt>
      <trkpt lat="49.09595" lon="7.10955">
        <ele>239.8</ele>
      </trkpt>
      <trkpt lat="49.09593" lon="7.10953">
        <ele>239.7</ele>
      </trkpt>
      <trkpt lat="49.09593" lon="7.10955">
        <ele>239.7</ele>
        <extensions>
          <visugpx:TrkExtension xmlns:visugpx="https://www.visugpx.com/editgpx/">
            <visugpx:node>8</visugpx:node>
            </visugpx:TrkExtension>
        </extensions>
      </trkpt>
      <trkpt lat="49.09589" lon="7.10974">
        <ele>240.3</ele>
      </trkpt>
      <trkpt lat="49.09586" lon="7.11">
        <ele>241.2</ele>
      </trkpt>
      <trkpt lat="49.09587" lon="7.11016">
        <ele>241.8</ele>
      </trkpt>
      <trkpt lat="49.09596" lon="7.11035">
        <ele>243.1</ele>
      </trkpt>
      <trkpt lat="49.09667" lon="7.11152">
        <ele>246.5</ele>
      </trkpt>
      <trkpt lat="49.09672" lon="7.1116">
        <ele>246.8</ele>
      </trkpt>
      <trkpt lat="49.09682" lon="7.11178">
        <ele>247.4</ele>
      </trkpt>
      <trkpt lat="49.0969" lon="7.11191">
        <ele>247.9</ele>
      </trkpt>
      <trkpt lat="49.09693" lon="7.11196">
        <ele>248.1</ele>
      </trkpt>
      <trkpt lat="49.09697" lon="7.11203">
        <ele>248.4</ele>
        <extensions>
          <visugpx:TrkExtension xmlns:visugpx="https://www.visugpx.com/editgpx/">
            <visugpx:node>9</visugpx:node>
            </visugpx:TrkExtension>
        </extensions>
      </trkpt>
      <trkpt lat="49.09705" lon="7.11215">
        <ele>249.1</ele>
      </trkpt>
      <trkpt lat="49.09717" lon="7.11235">
        <ele>250.3</ele>
      </trkpt>
      <trkpt lat="49.09733" lon="7.11267">
        <ele>251.4</ele>
      </trkpt>
      <trkpt lat="49.09774" lon="7.11347">
        <ele>253.9</ele>
      </trkpt>
      <trkpt lat="49.09787" lon="7.1137">
        <ele>254.9</ele>
      </trkpt>
      <trkpt lat="49.09799" lon="7.11393">
        <ele>255.9</ele>
      </trkpt>
      <trkpt lat="49.09812" lon="7.11421">
        <ele>257.2</ele>
      </trkpt>
      <trkpt lat="49.09844" lon="7.11489">
        <ele>260</ele>
      </trkpt>
      <trkpt lat="49.09941" lon="7.11693">
        <ele>266.9</ele>
      </trkpt>
      <trkpt lat="49.09947" lon="7.11703">
        <ele>267.3</ele>
      </trkpt>
      <trkpt lat="49.09949" lon="7.11713">
        <ele>267.7</ele>
      </trkpt>
      <trkpt lat="49.09951" lon="7.11711">
        <ele>267.6</ele>
      </trkpt>
      <trkpt lat="49.09957" lon="7.11709">
        <ele>267.5</ele>
        <extensions>
          <visugpx:TrkExtension xmlns:visugpx="https://www.visugpx.com/editgpx/">
            <visugpx:node>11</visugpx:node>
            </visugpx:TrkExtension>
        </extensions>
      </trkpt>
      <trkpt lat="49.09954" lon="7.11723">
        <ele>268</ele>
      </trkpt>
      <trkpt lat="49.09965" lon="7.11714">
        <ele>267.7</ele>
      </trkpt>
      <trkpt lat="49.10006" lon="7.11773">
        <ele>268.8</ele>
        <extensions>
          <visugpx:TrkExtension xmlns:visugpx="https://www.visugpx.com/editgpx/">
            <visugpx:node>12</visugpx:node>
            </visugpx:TrkExtension>
        </extensions>
      </trkpt>
      <trkpt lat="49.10013" lon="7.11783">
        <ele>269</ele>
      </trkpt>
      <trkpt lat="49.1001" lon="7.11811">
        <ele>269.2</ele>
      </trkpt>
      <trkpt lat="49.10012" lon="7.11844">
        <ele>270.2</ele>
      </trkpt>
      <trkpt lat="49.10011" lon="7.11876">
        <ele>270.8</ele>
      </trkpt>
      <trkpt lat="49.1002" lon="7.11891">
        <ele>271.1</ele>
      </trkpt>
      <trkpt lat="49.1005" lon="7.1191">
        <ele>271.2</ele>
      </trkpt>
      <trkpt lat="49.10071" lon="7.11913">
        <ele>270.9</ele>
      </trkpt>
      <trkpt lat="49.10072" lon="7.11913">
        <ele>270.9</ele>
        <extensions>
          <visugpx:TrkExtension xmlns:visugpx="https://www.visugpx.com/editgpx/">
            <visugpx:node>13</visugpx:node>
            </visugpx:TrkExtension>
        </extensions>
      </trkpt>
      <trkpt lat="49.10229" lon="7.11907">
        <ele>264.7</ele>
      </trkpt>
      <trkpt lat="49.10287" lon="7.11893">
        <ele>262.4</ele>
      </trkpt>
      <trkpt lat="49.10305" lon="7.11877">
        <ele>260.6</ele>
      </trkpt>
      <trkpt lat="49.10319" lon="7.11848">
        <ele>258.6</ele>
      </trkpt>
      <trkpt lat="49.10326" lon="7.11812">
        <ele>256.8</ele>
      </trkpt>
      <trkpt lat="49.10327" lon="7.1178">
        <ele>255.7</ele>
        <extensions>
          <visugpx:TrkExtension xmlns:visugpx="https://www.visugpx.com/editgpx/">
            <visugpx:node>14</visugpx:node>
            </visugpx:TrkExtension>
        </extensions>
      </trkpt>
      <trkpt lat="49.10329" lon="7.11738">
        <ele>254.9</ele>
      </trkpt>
      <trkpt lat="49.10333" lon="7.11731">
        <ele>254.3</ele>
      </trkpt>
      <trkpt lat="49.10366" lon="7.1173">
        <ele>254.5</ele>
      </trkpt>
      <trkpt lat="49.1037" lon="7.11732">
        <ele>254.7</ele>
        <extensions>
          <visugpx:TrkExtension xmlns:visugpx="https://www.visugpx.com/editgpx/">
            <visugpx:node>15</visugpx:node>
            </visugpx:TrkExtension>
        </extensions>
      </trkpt>
      <trkpt lat="49.10386" lon="7.1174">
        <ele>264.78883184838</ele>
        <time>2022-01-19T19:07:24.594Z</time>
      </trkpt>
      <trkpt lat="49.10428" lon="7.11772">
        <ele>265.8157856638</ele>
        <time>2022-01-19T19:07:25.107Z</time>
      </trkpt>
      <trkpt lat="49.10482" lon="7.11819">
        <ele>267.02691894162</ele>
        <time>2022-01-19T19:07:25.632Z</time>
      </trkpt>
      <trkpt lat="49.1055" lon="7.1187">
        <ele>268.45917021171</ele>
        <time>2022-01-19T19:07:26.173Z</time>
      </trkpt>
      <trkpt lat="49.10556" lon="7.11881">
        <ele>269.7130437287</ele>
        <time>2022-01-19T19:07:26.715Z</time>
      </trkpt>
      <trkpt lat="49.1056" lon="7.11899">
        <ele>271.01237360417</ele>
        <time>2022-01-19T19:07:27.260Z</time>
      </trkpt>
      <trkpt lat="49.10689" lon="7.12005">
        <ele>272.76051335088</ele>
        <time>2022-01-19T19:07:27.834Z</time>
      </trkpt>
      <trkpt lat="49.1069" lon="7.12006">
        <ele>277.34593365812</ele>
        <time>2022-01-19T19:07:28.983Z</time>
      </trkpt>
      <trkpt lat="49.10707" lon="7.12024">
        <ele>279.01810487633</ele>
        <time>2022-01-19T19:07:29.562Z</time>
      </trkpt>
      <trkpt lat="49.10726" lon="7.1213">
        <ele>280.93090612057</ele>
        <time>2022-01-19T19:07:30.155Z</time>
      </trkpt>
      <trkpt lat="49.10661" lon="7.12312">
        <ele>283.33906250791</ele>
        <time>2022-01-19T19:07:30.775Z</time>
      </trkpt>
      <trkpt lat="49.10656" lon="7.1231">
        <ele>285.02735070649</ele>
        <time>2022-01-19T19:07:31.396Z</time>
      </trkpt>
      <trkpt lat="49.10661" lon="7.12312">
        <ele>283.33906250791</ele>
        <time>2022-01-19T19:07:32.640Z</time>
      </trkpt>
      <trkpt lat="49.10608" lon="7.12464">
        <ele>290.35973764276</ele>
        <time>2022-01-19T19:07:33.285Z</time>
      </trkpt>
      <trkpt lat="49.10579" lon="7.12545">
        <ele>294.6126502261</ele>
        <time>2022-01-19T19:07:35.232Z</time>
      </trkpt>
      <trkpt lat="49.10446" lon="7.12962">
        <ele>296.07674465255</ele>
        <time>2022-01-19T19:07:35.950Z</time>
      </trkpt>
      <trkpt lat="49.10438" lon="7.12988">
        <ele>298.34393001261</ele>
        <time>2022-01-19T19:07:37.390Z</time>
      </trkpt>
      <trkpt lat="49.1041" lon="7.12919">
        <ele>299.40592514563</ele>
        <time>2022-01-19T19:07:38.123Z</time>
      </trkpt>
      <trkpt lat="49.10396" lon="7.129">
        <ele>300.32652429715</ele>
        <time>2022-01-19T19:07:38.859Z</time>
      </trkpt>
      <trkpt lat="49.10375" lon="7.12876">
        <ele>301.11595409953</ele>
        <time>2022-01-19T19:07:39.601Z</time>
      </trkpt>
      <trkpt lat="49.1036" lon="7.12866">
        <ele>301.83245623159</ele>
        <time>2022-01-19T19:07:40.346Z</time>
      </trkpt>
      <trkpt lat="49.10335" lon="7.12881">
        <ele>302.51459687206</ele>
        <time>2022-01-19T19:07:41.096Z</time>
      </trkpt>
      <trkpt lat="49.1031" lon="7.12952">
        <ele>303.60033521608</ele>
        <time>2022-01-19T19:07:41.857Z</time>
      </trkpt>
      <trkpt lat="49.10271" lon="7.1309">
        <ele>304.71878890342</ele>
        <time>2022-01-19T19:07:42.638Z</time>
      </trkpt>
      <trkpt lat="49.10237" lon="7.13205">
        <ele>304.90782184531</ele>
        <time>2022-01-19T19:07:43.435Z</time>
      </trkpt>
      <trkpt lat="49.10207" lon="7.13276">
        <ele>304.75266079845</ele>
        <time>2022-01-19T19:07:44.243Z</time>
      </trkpt>
      <trkpt lat="49.10167" lon="7.13325">
        <ele>304.32281678815</ele>
        <time>2022-01-19T19:07:45.062Z</time>
      </trkpt>
      <trkpt lat="49.10132" lon="7.13361">
        <ele>303.52523087795</ele>
        <time>2022-01-19T19:07:45.889Z</time>
      </trkpt>
      <trkpt lat="49.10103" lon="7.13374">
        <ele>302.83970195228</ele>
        <time>2022-01-19T19:07:46.722Z</time>
      </trkpt>
      <trkpt lat="49.10079" lon="7.13376">
        <ele>302.09431450216</ele>
        <time>2022-01-19T19:07:47.560Z</time>
      </trkpt>
      <trkpt lat="49.10059" lon="7.13382">
        <ele>301.33617465214</ele>
        <time>2022-01-19T19:07:48.402Z</time>
      </trkpt>
      <trkpt lat="49.10035" lon="7.13395">
        <ele>300.51239477881</ele>
        <time>2022-01-19T19:07:49.249Z</time>
      </trkpt>
      <trkpt lat="49.10012" lon="7.13425">
        <ele>299.33110664744</ele>
        <time>2022-01-19T19:07:50.102Z</time>
      </trkpt>
      <trkpt lat="49.10001" lon="7.13464">
        <ele>297.84353956673</ele>
        <time>2022-01-19T19:07:50.961Z</time>
      </trkpt>
      <trkpt lat="49.09977" lon="7.13505">
        <ele>296.58181396707</ele>
        <time>2022-01-19T19:07:51.827Z</time>
      </trkpt>
      <trkpt lat="49.09942" lon="7.1354">
        <ele>295.25523058694</ele>
        <time>2022-01-19T19:07:52.701Z</time>
      </trkpt>
      <trkpt lat="49.09912" lon="7.13552">
        <ele>294.16481557269</ele>
        <time>2022-01-19T19:07:53.582Z</time>
      </trkpt>
      <trkpt lat="49.0988" lon="7.13582">
        <ele>293.23272692666</ele>
        <time>2022-01-19T19:07:54.470Z</time>
      </trkpt>
      <trkpt lat="49.09848" lon="7.13602">
        <ele>292.32276349702</ele>
        <time>2022-01-19T19:07:55.365Z</time>
      </trkpt>
      <trkpt lat="49.09843" lon="7.13615">
        <ele>291.52409762193</ele>
        <time>2022-01-19T19:07:56.262Z</time>
      </trkpt>
      <trkpt lat="49.09829" lon="7.13634">
        <ele>290.82066158893</ele>
        <time>2022-01-19T19:07:57.163Z</time>
      </trkpt>
      <trkpt lat="49.09827" lon="7.13635">
        <ele>290.47091349946</ele>
        <time>2022-01-19T19:07:58.064Z</time>
      </trkpt>
      <trkpt lat="49.09808" lon="7.13645">
        <ele>290.2260405561</ele>
        <time>2022-01-19T19:07:59.870Z</time>
      </trkpt>
      <trkpt lat="49.09789" lon="7.13646">
        <ele>290.42005494021</ele>
        <time>2022-01-19T19:08:00.779Z</time>
      </trkpt>
      <trkpt lat="49.09786" lon="7.13602">
        <ele>291.90420939913</ele>
        <time>2022-01-19T19:08:01.694Z</time>
      </trkpt>
      <trkpt lat="49.09784" lon="7.13588">
        <ele>292.77965850456</ele>
        <time>2022-01-19T19:08:02.611Z</time>
      </trkpt>
      <trkpt lat="49.09786" lon="7.13575">
        <ele>293.72777706385</ele>
        <time>2022-01-19T19:08:03.530Z</time>
      </trkpt>
      <trkpt lat="49.09802" lon="7.1355">
        <ele>294.76013975522</ele>
        <time>2022-01-19T19:08:04.453Z</time>
      </trkpt>
      <trkpt lat="49.0983" lon="7.13498">
        <ele>297.01685990306</ele>
        <time>2022-01-19T19:08:06.308Z</time>
      </trkpt>
      <trkpt lat="49.0986" lon="7.13443">
        <ele>299.00430581579</ele>
        <time>2022-01-19T19:08:08.181Z</time>
      </trkpt>
      <trkpt lat="49.09889" lon="7.13397">
        <ele>299.89033890005</ele>
        <time>2022-01-19T19:08:09.131Z</time>
      </trkpt>
      <trkpt lat="49.09897" lon="7.1338">
        <ele>300.55710570039</ele>
        <time>2022-01-19T19:08:10.084Z</time>
      </trkpt>
      <trkpt lat="49.09916" lon="7.13342">
        <ele>301.22922674927</ele>
        <time>2022-01-19T19:08:11.043Z</time>
      </trkpt>
      <trkpt lat="49.09898" lon="7.13303">
        <ele>301.63520223964</ele>
        <time>2022-01-19T19:08:12.008Z</time>
      </trkpt>
      <trkpt lat="49.09879" lon="7.13285">
        <ele>301.85936222583</ele>
        <time>2022-01-19T19:08:12.977Z</time>
      </trkpt>
      <trkpt lat="49.09864" lon="7.1327">
        <ele>301.96028800867</ele>
        <time>2022-01-19T19:08:13.950Z</time>
      </trkpt>
      <trkpt lat="49.09851" lon="7.13254">
        <ele>301.8842078522</ele>
        <time>2022-01-19T19:08:14.926Z</time>
      </trkpt>
      <trkpt lat="49.09848" lon="7.13248">
        <ele>301.74142690476</ele>
        <time>2022-01-19T19:08:15.903Z</time>
      </trkpt>
      <trkpt lat="49.09838" lon="7.13229">
        <ele>300.63618218685</ele>
        <time>2022-01-19T19:08:17.861Z</time>
      </trkpt>
      <trkpt lat="49.09823" lon="7.13219">
        <ele>299.94054521178</ele>
        <time>2022-01-19T19:08:18.845Z</time>
      </trkpt>
      <trkpt lat="49.09807" lon="7.13196">
        <ele>299.24379137316</ele>
        <time>2022-01-19T19:08:19.833Z</time>
      </trkpt>
      <trkpt lat="49.09795" lon="7.13205">
        <ele>298.23547193914</ele>
        <time>2022-01-19T19:08:20.824Z</time>
      </trkpt>
      <trkpt lat="49.09763" lon="7.13193">
        <ele>297.15419484379</ele>
        <time>2022-01-19T19:08:21.821Z</time>
      </trkpt>
      <trkpt lat="49.09745" lon="7.13184">
        <ele>296.1964576316</ele>
        <time>2022-01-19T19:08:22.822Z</time>
      </trkpt>
      <trkpt lat="49.09722" lon="7.1318">
        <ele>295.13982282297</ele>
        <time>2022-01-19T19:08:23.828Z</time>
      </trkpt>
      <trkpt lat="49.09717" lon="7.13172">
        <ele>294.25568139121</ele>
        <time>2022-01-19T19:08:24.835Z</time>
      </trkpt>
      <trkpt lat="49.09716" lon="7.13154">
        <ele>293.45976371304</ele>
        <time>2022-01-19T19:08:25.845Z</time>
      </trkpt>
      <trkpt lat="49.09706" lon="7.13143">
        <ele>292.52614851574</ele>
        <time>2022-01-19T19:08:26.857Z</time>
      </trkpt>
      <trkpt lat="49.09692" lon="7.13114">
        <ele>291.65095899535</ele>
        <time>2022-01-19T19:08:27.874Z</time>
      </trkpt>
      <trkpt lat="49.09677" lon="7.13094">
        <ele>290.6785932099</ele>
        <time>2022-01-19T19:08:28.895Z</time>
      </trkpt>
      <trkpt lat="49.09677" lon="7.13093">
        <ele>289.8256767619</ele>
        <time>2022-01-19T19:08:29.916Z</time>
      </trkpt>
      <trkpt lat="49.0967" lon="7.13056">
        <ele>288.18678179387</ele>
        <time>2022-01-19T19:08:31.963Z</time>
      </trkpt>
      <trkpt lat="49.09677" lon="7.13013">
        <ele>287.5031301096</ele>
        <time>2022-01-19T19:08:32.995Z</time>
      </trkpt>
      <trkpt lat="49.09675" lon="7.12963">
        <ele>286.82008020143</ele>
        <time>2022-01-19T19:08:34.033Z</time>
      </trkpt>
      <trkpt lat="49.09662" lon="7.12907">
        <ele>286.12418871515</ele>
        <time>2022-01-19T19:08:35.079Z</time>
      </trkpt>
      <trkpt lat="49.0964" lon="7.12858">
        <ele>285.39944109416</ele>
        <time>2022-01-19T19:08:36.133Z</time>
      </trkpt>
      <trkpt lat="49.09629" lon="7.12837">
        <ele>284.82153920874</ele>
        <time>2022-01-19T19:08:37.191Z</time>
      </trkpt>
      <trkpt lat="49.09625" lon="7.12812">
        <ele>284.37172765442</ele>
        <time>2022-01-19T19:08:38.252Z</time>
      </trkpt>
      <trkpt lat="49.09625" lon="7.12802">
        <ele>284.07626168291</ele>
        <time>2022-01-19T19:08:39.314Z</time>
      </trkpt>
      <trkpt lat="49.09616" lon="7.12761">
        <ele>283.75170651958</ele>
        <time>2022-01-19T19:08:40.382Z</time>
      </trkpt>
      <trkpt lat="49.09614" lon="7.12739">
        <ele>283.65078149942</ele>
        <time>2022-01-19T19:08:41.453Z</time>
      </trkpt>
      <trkpt lat="49.09618" lon="7.12724">
        <ele>283.7558094698</ele>
        <time>2022-01-19T19:08:42.526Z</time>
      </trkpt>
      <trkpt lat="49.0963" lon="7.12697">
        <ele>284.04297275197</ele>
        <time>2022-01-19T19:08:43.603Z</time>
      </trkpt>
      <trkpt lat="49.09646" lon="7.12654">
        <ele>284.32212756859</ele>
        <time>2022-01-19T19:08:44.687Z</time>
      </trkpt>
      <trkpt lat="49.09654" lon="7.12649">
        <ele>284.84415481906</ele>
        <time>2022-01-19T19:08:45.773Z</time>
      </trkpt>
      <trkpt lat="49.09666" lon="7.12642">
        <ele>287.08278524736</ele>
        <time>2022-01-19T19:08:47.947Z</time>
      </trkpt>
      <trkpt lat="49.09683" lon="7.12639">
        <ele>288.10225355301</ele>
        <time>2022-01-19T19:08:49.038Z</time>
      </trkpt>
      <trkpt lat="49.09702" lon="7.12644">
        <ele>289.22455299229</ele>
        <time>2022-01-19T19:08:50.133Z</time>
      </trkpt>
      <trkpt lat="49.09751" lon="7.12678">
        <ele>290.67669494102</ele>
        <time>2022-01-19T19:08:51.239Z</time>
      </trkpt>
      <trkpt lat="49.09769" lon="7.12682">
        <ele>291.7722350698</ele>
        <time>2022-01-19T19:08:52.349Z</time>
      </trkpt>
      <trkpt lat="49.09777" lon="7.12648">
        <ele>292.66631540409</ele>
        <time>2022-01-19T19:08:53.464Z</time>
      </trkpt>
      <trkpt lat="49.09791" lon="7.12606">
        <ele>293.54642202752</ele>
        <time>2022-01-19T19:08:54.585Z</time>
      </trkpt>
      <trkpt lat="49.09792" lon="7.12589">
        <ele>294.30070839014</ele>
        <time>2022-01-19T19:08:55.708Z</time>
      </trkpt>
      <trkpt lat="49.09787" lon="7.12557">
        <ele>294.98124687077</ele>
        <time>2022-01-19T19:08:56.835Z</time>
      </trkpt>
      <trkpt lat="49.09785" lon="7.12515">
        <ele>295.63811368021</ele>
        <time>2022-01-19T19:08:57.968Z</time>
      </trkpt>
      <trkpt lat="49.09765" lon="7.12465">
        <ele>295.97903925253</ele>
        <time>2022-01-19T19:08:59.109Z</time>
      </trkpt>
      <trkpt lat="49.09745" lon="7.12398">
        <ele>296.14360886322</ele>
        <time>2022-01-19T19:09:00.259Z</time>
      </trkpt>
      <trkpt lat="49.09729" lon="7.12341">
        <ele>296.21163731805</ele>
        <time>2022-01-19T19:09:01.417Z</time>
      </trkpt>
      <trkpt lat="49.09722" lon="7.12296">
        <ele>296.00407731659</ele>
        <time>2022-01-19T19:09:02.581Z</time>
      </trkpt>
      <trkpt lat="49.09721" lon="7.12268">
        <ele>295.61990870538</ele>
        <time>2022-01-19T19:09:03.749Z</time>
      </trkpt>
      <trkpt lat="49.09719" lon="7.12211">
        <ele>291.98247671506</ele>
        <time>2022-01-19T19:09:07.261Z</time>
      </trkpt>
      <trkpt lat="49.0971" lon="7.12163">
        <ele>290.35869714924</ele>
        <time>2022-01-19T19:09:08.443Z</time>
      </trkpt>
      <trkpt lat="49.09709" lon="7.12147">
        <ele>288.68670014915</ele>
        <time>2022-01-19T19:09:09.627Z</time>
      </trkpt>
      <trkpt lat="49.09712" lon="7.12128">
        <ele>286.81306373065</ele>
        <time>2022-01-19T19:09:10.814Z</time>
      </trkpt>
      <trkpt lat="49.09706" lon="7.12112">
        <ele>284.85425458875</ele>
        <time>2022-01-19T19:09:12.003Z</time>
      </trkpt>
      <trkpt lat="49.09706" lon="7.121">
        <ele>282.8144445581</ele>
        <time>2022-01-19T19:09:13.194Z</time>
      </trkpt>
      <trkpt lat="49.09712" lon="7.12095">
        <ele>276.433499422</ele>
        <time>2022-01-19T19:09:14.386Z</time>
      </trkpt>
      <trkpt lat="49.0969" lon="7.12062">
        <ele>273.93482459434</ele>
        <time>2022-01-19T19:09:15.584Z</time>
      </trkpt>
      <trkpt lat="49.0958" lon="7.11878">
        <ele>270.97990001242</ele>
        <time>2022-01-19T19:09:16.815Z</time>
      </trkpt>
      <trkpt lat="49.09498" lon="7.11742">
        <ele>263.52224605904</ele>
        <time>2022-01-19T19:09:20.532Z</time>
      </trkpt>
      <trkpt lat="49.09419" lon="7.1159">
        <ele>260.82081594558</ele>
        <time>2022-01-19T19:09:21.813Z</time>
      </trkpt>
      <trkpt lat="49.094" lon="7.11553">
        <ele>255.94213790285</ele>
        <time>2022-01-19T19:09:24.381Z</time>
      </trkpt>
      <trkpt lat="49.09381" lon="7.11515">
        <ele>253.42963373072</ele>
        <time>2022-01-19T19:09:25.674Z</time>
      </trkpt>
      <trkpt lat="49.09346" lon="7.11445">
        <ele>250.85565711269</ele>
        <time>2022-01-19T19:09:26.979Z</time>
      </trkpt>
      <trkpt lat="49.09324" lon="7.11419">
        <ele>248.43090523122</ele>
        <time>2022-01-19T19:09:28.289Z</time>
      </trkpt>
      <trkpt lat="49.09324" lon="7.11418">
        <ele>246.07457627305</ele>
        <time>2022-01-19T19:09:29.599Z</time>
      </trkpt>
      <trkpt lat="49.09313" lon="7.11404">
        <ele>241.31019686947</ele>
        <time>2022-01-19T19:09:30.912Z</time>
      </trkpt>
      <trkpt lat="49.09242" lon="7.11342">
        <ele>238.70393332082</ele>
        <time>2022-01-19T19:09:32.242Z</time>
      </trkpt>
      <trkpt lat="49.09214" lon="7.11323">
        <ele>236.18346415774</ele>
        <time>2022-01-19T19:09:33.578Z</time>
      </trkpt>
      <trkpt lat="49.09105" lon="7.1125">
        <ele>233.41307499139</ele>
        <time>2022-01-19T19:09:34.938Z</time>
      </trkpt>
      <trkpt lat="49.09038" lon="7.11224">
        <ele>230.76665823213</ele>
        <time>2022-01-19T19:09:36.311Z</time>
      </trkpt>
      <trkpt lat="49.09003" lon="7.11211">
        <ele>225.7552539246</ele>
        <time>2022-01-19T19:09:39.065Z</time>
      </trkpt>
      <trkpt lat="49.08941" lon="7.11193">
        <ele>222.82488129131</ele>
        <time>2022-01-19T19:09:40.458Z</time>
      </trkpt>
      <trkpt lat="49.08941" lon="7.11183">
        <ele>220.56381977486</ele>
        <time>2022-01-19T19:09:41.853Z</time>
      </trkpt>
      <trkpt lat="49.08939" lon="7.11165">
        <ele>216.28356373402</ele>
        <time>2022-01-19T19:09:44.645Z</time>
      </trkpt>
      <trkpt lat="49.08917" lon="7.11094">
        <ele>214.00641359388</ele>
        <time>2022-01-19T19:09:46.052Z</time>
      </trkpt>
      <trkpt lat="49.08909" lon="7.11028">
        <ele>211.99679690232</ele>
        <time>2022-01-19T19:09:47.468Z</time>
      </trkpt>
      <trkpt lat="49.08884" lon="7.11008">
        <ele>208.23340374178</ele>
        <time>2022-01-19T19:09:50.306Z</time>
      </trkpt>
      <trkpt lat="49.0888" lon="7.11018">
        <ele>206.66229446848</ele>
        <time>2022-01-19T19:09:51.729Z</time>
      </trkpt>
      <trkpt lat="49.08876" lon="7.11084">
        <ele>205.18683842887</ele>
        <time>2022-01-19T19:09:53.161Z</time>
      </trkpt>
      <trkpt lat="49.08852" lon="7.1108">
        <ele>203.6665117648</ele>
        <time>2022-01-19T19:09:54.598Z</time>
      </trkpt>
      <trkpt lat="49.08819" lon="7.11065">
        <ele>202.39189813944</ele>
        <time>2022-01-19T19:09:56.042Z</time>
      </trkpt>
      <trkpt lat="49.08806" lon="7.11063">
        <ele>201.31647191182</ele>
        <time>2022-01-19T19:09:57.488Z</time>
      </trkpt>
      <trkpt lat="49.08799" lon="7.11062">
        <ele>198.93520782072</ele>
        <time>2022-01-19T19:10:00.382Z</time>
      </trkpt>
      <trkpt lat="49.08791" lon="7.11056">
        <ele>198.35066308703</ele>
        <time>2022-01-19T19:10:01.832Z</time>
      </trkpt>
      <trkpt lat="49.08787" lon="7.11031">
        <ele>197.87772116161</ele>
        <time>2022-01-19T19:10:03.285Z</time>
      </trkpt>
      <trkpt lat="49.08785" lon="7.11011">
        <ele>197.50578729965</ele>
        <time>2022-01-19T19:10:04.741Z</time>
      </trkpt>
      <trkpt lat="49.08782" lon="7.10977">
        <ele>196.98954460005</ele>
        <time>2022-01-19T19:10:07.657Z</time>
      </trkpt>
      <trkpt lat="49.08772" lon="7.10902">
        <ele>196.75531112151</ele>
        <time>2022-01-19T19:10:09.127Z</time>
      </trkpt>
      <trkpt lat="49.08772" lon="7.10831">
        <ele>196.7013714385</ele>
        <time>2022-01-19T19:10:10.607Z</time>
      </trkpt>
      <trkpt lat="49.08772" lon="7.10828">
        <ele>197.10196676264</ele>
        <time>2022-01-19T19:10:12.087Z</time>
      </trkpt>
      <trkpt lat="49.08769" lon="7.10802">
        <ele>197.33468738293</ele>
        <time>2022-01-19T19:10:13.571Z</time>
      </trkpt>
      <trkpt lat="49.08771" lon="7.10788">
        <ele>197.60704745551</ele>
        <time>2022-01-19T19:10:15.056Z</time>
      </trkpt>
      <trkpt lat="49.08777" lon="7.10778">
        <ele>198.66919175759</ele>
        <time>2022-01-19T19:10:16.543Z</time>
      </trkpt>
      <trkpt lat="49.08831" lon="7.10752">
        <ele>199.24280801225</ele>
        <time>2022-01-19T19:10:18.041Z</time>
      </trkpt>
      <trkpt lat="49.08834" lon="7.10746">
        <ele>199.69336503769</ele>
        <time>2022-01-19T19:10:19.541Z</time>
      </trkpt>
      <trkpt lat="49.08808" lon="7.10752">
        <ele>200.11612181728</ele>
        <time>2022-01-19T19:10:21.046Z</time>
      </trkpt>
      <trkpt lat="49.08781" lon="7.10761">
        <ele>200.53636846449</ele>
        <time>2022-01-19T19:10:22.556Z</time>
      </trkpt>
      <trkpt lat="49.08737" lon="7.10781">
        <ele>201.13659212586</ele>
        <time>2022-01-19T19:10:24.076Z</time>
      </trkpt>
      <trkpt lat="49.0867" lon="7.10812">
        <ele>202.17019232768</ele>
        <time>2022-01-19T19:10:25.610Z</time>
      </trkpt>
      <trkpt lat="49.08666" lon="7.10814">
        <ele>202.75158301446</ele>
        <time>2022-01-19T19:10:27.145Z</time>
      </trkpt>
      <trkpt lat="49.0867" lon="7.10835">
        <ele>203.24446004156</ele>
        <time>2022-01-19T19:10:28.682Z</time>
      </trkpt>
      <trkpt lat="49.08672" lon="7.1087">
        <ele>203.77282353818</ele>
        <time>2022-01-19T19:10:30.224Z</time>
      </trkpt>
      <trkpt lat="49.08671" lon="7.109">
        <ele>204.29623456894</ele>
        <time>2022-01-19T19:10:31.770Z</time>
        <extensions>
          <visugpx:TrkExtension xmlns:visugpx="https://www.visugpx.com/editgpx/">
            <visugpx:node>17</visugpx:node>
            </visugpx:TrkExtension>
        </extensions>
      </trkpt>
      <trkpt lat="49.08672" lon="7.10871">
        <ele>201.4</ele>
      </trkpt>
      <trkpt lat="49.0867" lon="7.10834">
        <ele>203.9</ele>
      </trkpt>
      <trkpt lat="49.08666" lon="7.10815">
        <ele>205</ele>
      </trkpt>
      <trkpt lat="49.08666" lon="7.10795">
        <ele>203.8</ele>
      </trkpt>
      <trkpt lat="49.08664" lon="7.10776">
        <ele>202</ele>
      </trkpt>
      <trkpt lat="49.08659" lon="7.10766">
        <ele>201.7</ele>
      </trkpt>
      <trkpt lat="49.08659" lon="7.10731">
        <ele>200.3</ele>
      </trkpt>
      <trkpt lat="49.0866" lon="7.1066">
        <ele>200.9</ele>
      </trkpt>
      <trkpt lat="49.08665" lon="7.10607">
        <ele>202.1</ele>
      </trkpt>
      <trkpt lat="49.08671" lon="7.10547">
        <ele>201.1</ele>
      </trkpt>
      <trkpt lat="49.08684" lon="7.1047">
        <ele>199.7</ele>
      </trkpt>
      <trkpt lat="49.0871" lon="7.10375">
        <ele>199.8</ele>
        <extensions>
          <visugpx:TrkExtension xmlns:visugpx="https://www.visugpx.com/editgpx/">
            <visugpx:node>18</visugpx:node>
            </visugpx:TrkExtension>
        </extensions>
      </trkpt>
      <trkpt lat="49.08722" lon="7.10331">
        <ele>202</ele>
      </trkpt>
      <trkpt lat="49.08745" lon="7.10271">
        <ele>201.5</ele>
      </trkpt>
      <trkpt lat="49.08772" lon="7.10213">
        <ele>201.9</ele>
      </trkpt>
      <trkpt lat="49.0887" lon="7.10029">
        <ele>202</ele>
      </trkpt>
      <trkpt lat="49.08881" lon="7.10017">
        <ele>202.1</ele>
      </trkpt>
      <trkpt lat="49.08904" lon="7.1001">
        <ele>199.8</ele>
      </trkpt>
      <trkpt lat="49.0891" lon="7.10003">
        <ele>199</ele>
      </trkpt>
      <trkpt lat="49.08911" lon="7.09991">
        <ele>199.8</ele>
      </trkpt>
      <trkpt lat="49.08909" lon="7.09965">
        <ele>202.3</ele>
      </trkpt>
      <trkpt lat="49.08911" lon="7.09958">
        <ele>202.6</ele>
      </trkpt>
      <trkpt lat="49.08915" lon="7.09948">
        <ele>202.9</ele>
      </trkpt>
      <trkpt lat="49.08961" lon="7.09861">
        <ele>201.4</ele>
      </trkpt>
      <trkpt lat="49.09122" lon="7.09598">
        <ele>200.9</ele>
        <extensions>
          <visugpx:TrkExtension xmlns:visugpx="https://www.visugpx.com/editgpx/">
            <visugpx:node>19</visugpx:node>
            </visugpx:TrkExtension>
        </extensions>
      </trkpt>
      <trkpt lat="49.09192" lon="7.09492">
        <ele>200.3017975194</ele>
        <time>2022-01-19T19:12:18.286Z</time>
        <extensions>
          <visugpx:TrkExtension xmlns:visugpx="https://www.visugpx.com/editgpx/">
            <visugpx:node>17</visugpx:node>
            </visugpx:TrkExtension>
        </extensions>
      </trkpt>
      <trkpt lat="49.09193" lon="7.09492">
        <ele>200.45501948884</ele>
        <time>2022-01-19T19:12:20.200Z</time>
      </trkpt>
      <trkpt lat="49.0932" lon="7.09275">
        <ele>200.06588494639</ele>
        <time>2022-01-19T19:12:22.152Z</time>
      </trkpt>
      <trkpt lat="49.09345" lon="7.09225">
        <ele>199.9954544268</ele>
        <time>2022-01-19T19:12:24.112Z</time>
      </trkpt>
      <trkpt lat="49.09366" lon="7.09177">
        <ele>199.90614816453</ele>
        <time>2022-01-19T19:12:26.080Z</time>
      </trkpt>
      <trkpt lat="49.09402" lon="7.09078">
        <ele>199.87720370824</ele>
        <time>2022-01-19T19:12:28.063Z</time>
      </trkpt>
      <trkpt lat="49.09425" lon="7.08998">
        <ele>199.9513288555</ele>
        <time>2022-01-19T19:12:30.057Z</time>
      </trkpt>
      <trkpt lat="49.09521" lon="7.08635">
        <ele>199.76275803141</ele>
        <time>2022-01-19T19:12:32.103Z</time>
      </trkpt>
      <trkpt lat="49.09538" lon="7.08581">
        <ele>199.96604758963</ele>
        <time>2022-01-19T19:12:34.156Z</time>
      </trkpt>
      <trkpt lat="49.09557" lon="7.08528">
        <ele>199.87196027615</ele>
        <time>2022-01-19T19:12:36.217Z</time>
      </trkpt>
      <trkpt lat="49.09579" lon="7.08477">
        <ele>199.90679677285</ele>
        <time>2022-01-19T19:12:38.286Z</time>
      </trkpt>
      <trkpt lat="49.096" lon="7.0843">
        <ele>199.90360748489</ele>
        <time>2022-01-19T19:12:40.363Z</time>
      </trkpt>
      <trkpt lat="49.09626" lon="7.08382">
        <ele>199.88918336974</ele>
        <time>2022-01-19T19:12:42.448Z</time>
      </trkpt>
      <trkpt lat="49.09685" lon="7.08288">
        <ele>199.85214740954</ele>
        <time>2022-01-19T19:12:44.550Z</time>
      </trkpt>
      <trkpt lat="49.09716" lon="7.08245">
        <ele>199.88819049456</ele>
        <time>2022-01-19T19:12:46.661Z</time>
      </trkpt>
      <trkpt lat="49.09753" lon="7.08202">
        <ele>199.95921544189</ele>
        <time>2022-01-19T19:12:48.781Z</time>
      </trkpt>
      <trkpt lat="49.09788" lon="7.08164">
        <ele>199.8571948303</ele>
        <time>2022-01-19T19:12:50.909Z</time>
      </trkpt>
      <trkpt lat="49.09848" lon="7.08111">
        <ele>199.73787332419</ele>
        <time>2022-01-19T19:12:53.051Z</time>
      </trkpt>
      <trkpt lat="49.09926" lon="7.08054">
        <ele>199.53393661588</ele>
        <time>2022-01-19T19:12:55.211Z</time>
      </trkpt>
      <trkpt lat="49.09937" lon="7.08047">
        <ele>199.52332105419</ele>
        <time>2022-01-19T19:12:57.373Z</time>
      </trkpt>
      <trkpt lat="49.0995" lon="7.08032">
        <ele>199.54609956463</ele>
        <time>2022-01-19T19:12:59.538Z</time>
      </trkpt>
      <trkpt lat="49.09966" lon="7.08021">
        <ele>199.52734757797</ele>
        <time>2022-01-19T19:13:01.707Z</time>
      </trkpt>
      <trkpt lat="49.09971" lon="7.08022">
        <ele>199.41931384648</ele>
        <time>2022-01-19T19:13:03.877Z</time>
      </trkpt>
      <trkpt lat="49.09977" lon="7.08021">
        <ele>199.28047927262</ele>
        <time>2022-01-19T19:13:06.048Z</time>
      </trkpt>
      <trkpt lat="49.09969" lon="7.07993">
        <ele>199.21211056638</ele>
        <time>2022-01-19T19:13:08.223Z</time>
      </trkpt>
      <trkpt lat="49.09978" lon="7.07984">
        <ele>199.04204934202</ele>
        <time>2022-01-19T19:13:10.400Z</time>
      </trkpt>
      <trkpt lat="49.09995" lon="7.07968">
        <ele>198.83317828911</ele>
        <time>2022-01-19T19:13:12.581Z</time>
      </trkpt>
      <trkpt lat="49.10024" lon="7.07941">
        <ele>198.50946508341</ele>
        <time>2022-01-19T19:13:16.950Z</time>
      </trkpt>
      <trkpt lat="49.10195" lon="7.07725">
        <ele>198.14390117714</ele>
        <time>2022-01-19T19:13:19.182Z</time>
      </trkpt>
      <trkpt lat="49.10218" lon="7.07691">
        <ele>198.03396557287</ele>
        <time>2022-01-19T19:13:21.421Z</time>
      </trkpt>
      <trkpt lat="49.10207" lon="7.07676">
        <ele>197.97307440947</ele>
        <time>2022-01-19T19:13:23.663Z</time>
      </trkpt>
      <trkpt lat="49.102" lon="7.07662">
        <ele>197.92352018213</ele>
        <time>2022-01-19T19:13:25.907Z</time>
      </trkpt>
      <trkpt lat="49.10203" lon="7.07659">
        <ele>197.86158496551</ele>
        <time>2022-01-19T19:13:28.152Z</time>
      </trkpt>
      <trkpt lat="49.1021" lon="7.07654">
        <ele>197.8222112379</ele>
        <time>2022-01-19T19:13:30.398Z</time>
      </trkpt>
      <trkpt lat="49.10207" lon="7.07647">
        <ele>197.84304699289</ele>
        <time>2022-01-19T19:13:32.645Z</time>
      </trkpt>
      <trkpt lat="49.10205" lon="7.07639">
        <ele>197.89668582103</ele>
        <time>2022-01-19T19:13:34.893Z</time>
      </trkpt>
      <trkpt lat="49.10209" lon="7.07634">
        <ele>197.95941086735</ele>
        <time>2022-01-19T19:13:37.142Z</time>
      </trkpt>
      <trkpt lat="49.10216" lon="7.07632">
        <ele>198.03576685762</ele>
        <time>2022-01-19T19:13:39.393Z</time>
        <extensions>
          <visugpx:TrkExtension xmlns:visugpx="https://www.visugpx.com/editgpx/">
            <visugpx:node>18</visugpx:node>
            </visugpx:TrkExtension>
        </extensions>
      </trkpt>
      <trkpt lat="49.10222" lon="7.0763">
        <ele>200</ele>
      </trkpt>
      <trkpt lat="49.10263" lon="7.07617">
        <ele>199.8</ele>
      </trkpt>
      <trkpt lat="49.10283" lon="7.076">
        <ele>199.4</ele>
      </trkpt>
      <trkpt lat="49.10287" lon="7.07593">
        <ele>199.2</ele>
        <extensions>
          <visugpx:TrkExtension xmlns:visugpx="https://www.visugpx.com/editgpx/">
            <visugpx:node>20</visugpx:node>
            </visugpx:TrkExtension>
        </extensions>
      </trkpt>
      <trkpt lat="49.10312" lon="7.07555">
        <ele>200.1</ele>
      </trkpt>
      <trkpt lat="49.10313" lon="7.07547">
        <ele>200.4</ele>
      </trkpt>
      <trkpt lat="49.10326" lon="7.07529">
        <ele>200.4</ele>
      </trkpt>
      <trkpt lat="49.10332" lon="7.07515">
        <ele>200.1</ele>
      </trkpt>
      <trkpt lat="49.10333" lon="7.07501">
        <ele>200</ele>
      </trkpt>
      <trkpt lat="49.10332" lon="7.07494">
        <ele>200.3</ele>
      </trkpt>
      <trkpt lat="49.1033" lon="7.07487">
        <ele>200.8</ele>
      </trkpt>
      <trkpt lat="49.1033" lon="7.07484">
        <ele>200.9</ele>
        <extensions>
          <visugpx:TrkExtension xmlns:visugpx="https://www.visugpx.com/editgpx/">
            <visugpx:node>21</visugpx:node>
            </visugpx:TrkExtension>
        </extensions>
      </trkpt>
      <trkpt lat="49.10328" lon="7.07479">
        <ele>201.2</ele>
      </trkpt>
      <trkpt lat="49.10324" lon="7.07474">
        <ele>201.6</ele>
      </trkpt>
      <trkpt lat="49.10319" lon="7.07467">
        <ele>202.2</ele>
      </trkpt>
      <trkpt lat="49.10316" lon="7.07468">
        <ele>202.4</ele>
      </trkpt>
      <trkpt lat="49.10308" lon="7.07458">
        <ele>202.9</ele>
      </trkpt>
      <trkpt lat="49.10303" lon="7.07453">
        <ele>203.2</ele>
      </trkpt>
      <trkpt lat="49.10299" lon="7.07452">
        <ele>203.5</ele>
      </trkpt>
      <trkpt lat="49.10291" lon="7.07455">
        <ele>204</ele>
      </trkpt>
      <trkpt lat="49.10286" lon="7.07461">
        <ele>204.4</ele>
      </trkpt>
      <trkpt lat="49.10284" lon="7.07469">
        <ele>204.6</ele>
      </trkpt>
      <trkpt lat="49.10285" lon="7.07476">
        <ele>204.6</ele>
        <extensions>
          <visugpx:TrkExtension xmlns:visugpx="https://www.visugpx.com/editgpx/">
            <visugpx:node>22</visugpx:node>
            </visugpx:TrkExtension>
        </extensions>
      </trkpt>
      <trkpt lat="49.10343" lon="7.07725">
        <ele>202.4109724507</ele>
        <time>2022-01-19T19:15:35.752Z</time>
        <extensions>
          <visugpx:TrkExtension xmlns:visugpx="https://www.visugpx.com/editgpx/">
            <visugpx:node>17</visugpx:node>
            </visugpx:TrkExtension>
        </extensions>
      </trkpt>
      <trkpt lat="49.10356" lon="7.07774">
        <ele>203.36147927757</ele>
        <time>2022-01-19T19:15:38.173Z</time>
      </trkpt>
      <trkpt lat="49.10361" lon="7.07788">
        <ele>204.28530875477</ele>
        <time>2022-01-19T19:15:40.596Z</time>
      </trkpt>
      <trkpt lat="49.10363" lon="7.07799">
        <ele>205.23830157727</ele>
        <time>2022-01-19T19:15:43.020Z</time>
      </trkpt>
      <trkpt lat="49.10381" lon="7.07849">
        <ele>206.38602041979</ele>
        <time>2022-01-19T19:15:45.452Z</time>
      </trkpt>
      <trkpt lat="49.10397" lon="7.07905">
        <ele>207.53291450698</ele>
        <time>2022-01-19T19:15:47.892Z</time>
      </trkpt>
      <trkpt lat="49.1041" lon="7.07942">
        <ele>208.50032165111</ele>
        <time>2022-01-19T19:15:50.337Z</time>
      </trkpt>
      <trkpt lat="49.10478" lon="7.08154">
        <ele>209.8948400307</ele>
        <time>2022-01-19T19:15:52.813Z</time>
      </trkpt>
      <trkpt lat="49.10497" lon="7.08212">
        <ele>210.76354115986</ele>
        <time>2022-01-19T19:15:55.298Z</time>
      </trkpt>
      <trkpt lat="49.10511" lon="7.08244">
        <ele>211.64163588689</ele>
        <time>2022-01-19T19:15:57.788Z</time>
      </trkpt>
      <trkpt lat="49.10536" lon="7.08278">
        <ele>212.52599348781</ele>
        <time>2022-01-19T19:16:00.284Z</time>
      </trkpt>
      <trkpt lat="49.10538" lon="7.08285">
        <ele>213.33294624839</ele>
        <time>2022-01-19T19:16:02.781Z</time>
      </trkpt>
      <trkpt lat="49.10541" lon="7.08292">
        <ele>214.08590106071</ele>
        <time>2022-01-19T19:16:05.280Z</time>
      </trkpt>
      <trkpt lat="49.10553" lon="7.08316">
        <ele>214.81318373617</ele>
        <time>2022-01-19T19:16:07.782Z</time>
      </trkpt>
      <trkpt lat="49.10571" lon="7.08345">
        <ele>215.42567463824</ele>
        <time>2022-01-19T19:16:10.290Z</time>
      </trkpt>
      <trkpt lat="49.10601" lon="7.08382">
        <ele>215.9265925428</ele>
        <time>2022-01-19T19:16:12.806Z</time>
      </trkpt>
      <trkpt lat="49.10691" lon="7.08477">
        <ele>216.47949777461</ele>
        <time>2022-01-19T19:16:15.343Z</time>
      </trkpt>
      <trkpt lat="49.10719" lon="7.08509">
        <ele>216.93560405079</ele>
        <time>2022-01-19T19:16:17.887Z</time>
      </trkpt>
      <trkpt lat="49.10731" lon="7.08525">
        <ele>217.33468430074</ele>
        <time>2022-01-19T19:16:20.435Z</time>
      </trkpt>
      <trkpt lat="49.10737" lon="7.08542">
        <ele>217.68751181213</ele>
        <time>2022-01-19T19:16:22.985Z</time>
      </trkpt>
      <trkpt lat="49.10748" lon="7.08598">
        <ele>218.10716887105</ele>
        <time>2022-01-19T19:16:25.543Z</time>
      </trkpt>
      <trkpt lat="49.10754" lon="7.08609">
        <ele>218.34874780967</ele>
        <time>2022-01-19T19:16:28.103Z</time>
      </trkpt>
      <trkpt lat="49.10763" lon="7.08615">
        <ele>218.51294339261</ele>
        <time>2022-01-19T19:16:30.665Z</time>
      </trkpt>
      <trkpt lat="49.10767" lon="7.08615">
        <ele>218.6153243325</ele>
        <time>2022-01-19T19:16:33.228Z</time>
      </trkpt>
      <trkpt lat="49.10773" lon="7.08616">
        <ele>218.69017334112</ele>
        <time>2022-01-19T19:16:38.355Z</time>
      </trkpt>
      <trkpt lat="49.10786" lon="7.08611">
        <ele>218.63581430405</ele>
        <time>2022-01-19T19:16:40.921Z</time>
      </trkpt>
      <trkpt lat="49.10807" lon="7.08591">
        <ele>218.53401174243</ele>
        <time>2022-01-19T19:16:43.492Z</time>
      </trkpt>
      <trkpt lat="49.10814" lon="7.08591">
        <ele>218.48319492437</ele>
        <time>2022-01-19T19:16:46.065Z</time>
      </trkpt>
      <trkpt lat="49.10821" lon="7.08595">
        <ele>218.41724404797</ele>
        <time>2022-01-19T19:16:48.639Z</time>
      </trkpt>
      <trkpt lat="49.1083" lon="7.08603">
        <ele>218.34056614558</ele>
        <time>2022-01-19T19:16:51.215Z</time>
      </trkpt>
      <trkpt lat="49.10835" lon="7.08606">
        <ele>218.12597235344</ele>
        <time>2022-01-19T19:16:56.368Z</time>
      </trkpt>
      <trkpt lat="49.10838" lon="7.08609">
        <ele>218.00369629245</ele>
        <time>2022-01-19T19:16:58.946Z</time>
      </trkpt>
      <trkpt lat="49.10854" lon="7.08625">
        <ele>217.89430152961</ele>
        <time>2022-01-19T19:17:01.528Z</time>
      </trkpt>
      <trkpt lat="49.1086" lon="7.0864">
        <ele>217.76219852669</ele>
        <time>2022-01-19T19:17:04.112Z</time>
      </trkpt>
      <trkpt lat="49.10864" lon="7.08636">
        <ele>217.60898857415</ele>
        <time>2022-01-19T19:17:06.697Z</time>
      </trkpt>
      <trkpt lat="49.10881" lon="7.0861">
        <ele>217.45991809051</ele>
        <time>2022-01-19T19:17:09.287Z</time>
      </trkpt>
      <trkpt lat="49.10888" lon="7.08603">
        <ele>217.29009855557</ele>
        <time>2022-01-19T19:17:11.879Z</time>
      </trkpt>
      <trkpt lat="49.10899" lon="7.086">
        <ele>217.11818540019</ele>
        <time>2022-01-19T19:17:14.473Z</time>
      </trkpt>
      <trkpt lat="49.10919" lon="7.08584">
        <ele>216.93385659518</ele>
        <time>2022-01-19T19:17:17.071Z</time>
      </trkpt>
      <trkpt lat="49.10938" lon="7.08573">
        <ele>216.76210162171</ele>
        <time>2022-01-19T19:17:19.674Z</time>
      </trkpt>
      <trkpt lat="49.11021" lon="7.08498">
        <ele>216.32381120053</ele>
        <time>2022-01-19T19:17:22.296Z</time>
      </trkpt>
      <trkpt lat="49.11034" lon="7.08497">
        <ele>216.24315186207</ele>
        <time>2022-01-19T19:17:24.920Z</time>
      </trkpt>
      <trkpt lat="49.11041" lon="7.08492">
        <ele>216.2208811934</ele>
        <time>2022-01-19T19:17:27.546Z</time>
      </trkpt>
      <trkpt lat="49.1105" lon="7.08486">
        <ele>216.22710082524</ele>
        <time>2022-01-19T19:17:30.174Z</time>
      </trkpt>
      <trkpt lat="49.11066" lon="7.08522">
        <ele>216.2207136278</ele>
        <time>2022-01-19T19:17:32.808Z</time>
      </trkpt>
      <trkpt lat="49.11073" lon="7.0854">
        <ele>216.27683262078</ele>
        <time>2022-01-19T19:17:35.444Z</time>
      </trkpt>
      <trkpt lat="49.11107" lon="7.08604">
        <ele>216.41701610446</ele>
        <time>2022-01-19T19:17:38.091Z</time>
      </trkpt>
      <trkpt lat="49.11142" lon="7.08668">
        <ele>216.71136659247</ele>
        <time>2022-01-19T19:17:40.749Z</time>
      </trkpt>
      <trkpt lat="49.11184" lon="7.08737">
        <ele>217.05289281316</ele>
        <time>2022-01-19T19:17:43.419Z</time>
      </trkpt>
      <trkpt lat="49.11196" lon="7.08753">
        <ele>217.24970284876</ele>
        <time>2022-01-19T19:17:46.093Z</time>
      </trkpt>
      <trkpt lat="49.11201" lon="7.08764">
        <ele>217.44143612495</ele>
        <time>2022-01-19T19:17:48.768Z</time>
      </trkpt>
      <trkpt lat="49.11206" lon="7.08783">
        <ele>217.64861510239</ele>
        <time>2022-01-19T19:17:51.446Z</time>
      </trkpt>
      <trkpt lat="49.11304" lon="7.08962">
        <ele>217.89758746955</ele>
        <time>2022-01-19T19:17:54.155Z</time>
      </trkpt>
      <trkpt lat="49.11352" lon="7.09061">
        <ele>218.45631429072</ele>
        <time>2022-01-19T19:17:59.589Z</time>
      </trkpt>
      <trkpt lat="49.11364" lon="7.09077">
        <ele>218.76436126421</ele>
        <time>2022-01-19T19:18:02.317Z</time>
      </trkpt>
      <trkpt lat="49.11374" lon="7.09085">
        <ele>219.11904682044</ele>
        <time>2022-01-19T19:18:05.047Z</time>
      </trkpt>
      <trkpt lat="49.11378" lon="7.09095">
        <ele>219.88529203709</ele>
        <time>2022-01-19T19:18:10.509Z</time>
      </trkpt>
      <trkpt lat="49.11419" lon="7.09144">
        <ele>220.36524576859</ele>
        <time>2022-01-19T19:18:13.251Z</time>
      </trkpt>
      <trkpt lat="49.11443" lon="7.09166">
        <ele>220.80533732962</ele>
        <time>2022-01-19T19:18:15.999Z</time>
      </trkpt>
      <trkpt lat="49.11475" lon="7.09223">
        <ele>221.23597500541</ele>
        <time>2022-01-19T19:18:18.757Z</time>
      </trkpt>
      <trkpt lat="49.11471" lon="7.09222">
        <ele>221.84849932553</ele>
        <time>2022-01-19T19:18:21.515Z</time>
      </trkpt>
      <trkpt lat="49.11457" lon="7.09234">
        <ele>222.17239653635</ele>
        <time>2022-01-19T19:18:24.277Z</time>
      </trkpt>
      <trkpt lat="49.11448" lon="7.09244">
        <ele>222.1</ele>
        <time>2022-01-19T19:18:29.802Z</time>
      </trkpt>
      <trkpt lat="49.11444" lon="7.09257">
        <ele>222</ele>
        <time>2022-01-19T19:18:32.567Z</time>
      </trkpt>
      <trkpt lat="49.11442" lon="7.09264">
        <ele>222</ele>
        <time>2022-01-19T19:18:35.333Z</time>
      </trkpt>
      <trkpt lat="49.11439" lon="7.09272">
        <ele>222</ele>
        <time>2022-01-19T19:18:38.100Z</time>
      </trkpt>
      <trkpt lat="49.1143" lon="7.09279">
        <ele>222</ele>
        <time>2022-01-19T19:18:40.868Z</time>
      </trkpt>
      <trkpt lat="49.11424" lon="7.09286">
        <ele>222.3</ele>
        <time>2022-01-19T19:18:43.639Z</time>
      </trkpt>
      <trkpt lat="49.11412" lon="7.09297">
        <ele>222.6</ele>
        <time>2022-01-19T19:18:46.414Z</time>
      </trkpt>
      <trkpt lat="49.11401" lon="7.09309">
        <ele>222.5</ele>
        <time>2022-01-19T19:18:49.192Z</time>
      </trkpt>
      <trkpt lat="49.11398" lon="7.09315">
        <ele>222.6</ele>
      </trkpt>
      <trkpt lat="49.11394" lon="7.09337">
        <ele>223</ele>
        <time>2022-01-19T19:18:51.973Z</time>
      </trkpt>
      <trkpt lat="49.11375" lon="7.09428">
        <ele>223.84343923316</ele>
        <time>2022-01-19T19:18:54.768Z</time>
        <extensions>
          <visugpx:TrkExtension xmlns:visugpx="https://www.visugpx.com/editgpx/">
            <visugpx:node>16</visugpx:node>
            </visugpx:TrkExtension>
        </extensions>
      </trkpt>
      <trkpt lat="49.11373" lon="7.09434">
        <ele>223</ele>
      </trkpt>
      <trkpt lat="49.11366" lon="7.09459">
        <ele>223.6</ele>
      </trkpt>
      <trkpt lat="49.11364" lon="7.09466">
        <ele>223.9</ele>
      </trkpt>
      <trkpt lat="49.11363" lon="7.09474">
        <ele>224.1</ele>
      </trkpt>
      <trkpt lat="49.11358" lon="7.09474">
        <ele>223.9</ele>
      </trkpt>
      <trkpt lat="49.11355" lon="7.09473">
        <ele>223.8</ele>
      </trkpt>
      <trkpt lat="49.11344" lon="7.09472">
        <ele>223.4</ele>
      </trkpt>
      <trkpt lat="49.11337" lon="7.09471">
        <ele>223.1</ele>
        <extensions>
          <visugpx:TrkExtension xmlns:visugpx="https://www.visugpx.com/editgpx/">
            <visugpx:node>23</visugpx:node>
            </visugpx:TrkExtension>
        </extensions>
      </trkpt>
    </trkseg>
  </trk>
</gpx>